CheckWX is a tool to help pilots better visualize weather data.  It is not intended as a substitute for an official pre-flight weather briefing.

07:07:29 UTC

KAFF METAR
Usaf Academy Afld Airport
Colorado Springs, Colorado, USA
Current

30 mins ago

KAFF 210637Z AUTO 35014G21KT 10SM BKN070 OVC090 00/00 A2966 RMK AO2 SNE09UPB09E37 SLP058
Observed
May-21 @ 06:37 UTC
Wind
  • 350° at 14 KTS
  • Gusting to 21 KTS
Visibility
10 SM
Flight Rules
VFR
Cloud Levels
  • Broken at 7,000' AGL
  • Overcast at 9,000' AGL
Temperature
C / 32°F
Dewpoint
C / 32°F
Humidity
100%
Altimeter
29.66" Hg
Pressure
1004.42 hPa
Previous

60 mins ago

KAFF 210607Z AUTO 34013KT 8SM -SN FEW014 OVC065 00/00 A2968 RMK AO2 SLP065
Observed
May-21 @ 06:07 UTC
Wind
  • 340° at 13 KTS
Visibility
8 SM
Flight Rules
VFR
Conditions
Light Snow
Cloud Levels
  • Few at 1,400' AGL
  • Overcast at 6,500' AGL
Temperature
C / 32°F
Dewpoint
C / 32°F
Humidity
100%
Altimeter
29.68" Hg
Pressure
1005.12 hPa
Previous

1 hour ago

KAFF 210558Z AUTO 34013KT 5SM -SN BR SCT022 OVC065 00/00 A2968 RMK AO2 SLP065 P0000 60005 T00001001 10012 20000 58014
Observed
May-21 @ 05:58 UTC
Wind
  • 340° at 13 KTS
Visibility
5 SM
Flight Rules
MVFR
Conditions
Light Snow, Mist
Cloud Levels
  • Scattered at 2,200' AGL
  • Overcast at 6,500' AGL
Temperature
C / 32°F
Dewpoint
-0°C / 32°F
Humidity
100%
Altimeter
29.68" Hg
Pressure
1005.12 hPa
Current Rain
0.01"